createdAt,value
2018-01-13T00:00:33.542Z,129.00
2018-01-13T00:03:01.937Z,129.97
2018-01-13T00:05:30.392Z,126.80
2018-01-13T00:07:58.749Z,115.17
2018-01-13T00:10:27.372Z,129.00
2018-01-13T00:12:55.703Z,127.83
2018-01-13T00:15:24.298Z,141.07
2018-01-13T00:17:52.645Z,132.93
2018-01-13T00:20:21.912Z,142.73
2018-01-13T00:22:50.345Z,129.37
2018-01-13T00:25:18.761Z,140.23
2018-01-13T00:27:47.092Z,120.97
2018-01-13T00:30:15.508Z,147.80
2018-01-13T00:32:43.956Z,132.07
2018-01-13T00:35:12.288Z,136.43
2018-01-13T00:37:40.677Z,138.30
2018-01-13T00:40:09.859Z,135.73
2018-01-13T00:42:38.261Z,133.83
2018-01-13T00:45:07.371Z,135.53
2018-01-13T00:47:35.775Z,130.10
2018-01-13T00:50:04.213Z,131.97
2018-01-13T00:52:33.319Z,143.90
2018-01-13T00:55:02.405Z,138.90
2018-01-13T00:57:31.655Z,135.73
2018-01-13T01:00:00.067Z,133.00
2018-01-13T01:02:29.176Z,143.53
2018-01-13T01:04:57.542Z,124.23
2018-01-13T01:07:25.942Z,132.53
2018-01-13T01:09:54.419Z,119.07
2018-01-13T01:12:23.576Z,154.37
2018-01-13T01:14:51.982Z,131.37
2018-01-13T01:17:21.186Z,149.07
2018-01-13T01:19:50.346Z,129.30
2018-01-13T01:22:18.712Z,144.77
2018-01-13T01:24:47.101Z,135.80
2018-01-13T01:27:15.586Z,142.43
2018-01-13T01:29:44.013Z,136.47
2018-01-13T01:32:13.170Z,128.50
2018-01-13T01:34:41.568Z,127.13
2018-01-13T01:37:09.958Z,138.97
2018-01-13T01:39:39.078Z,135.03
2018-01-13T01:42:07.508Z,124.60
2018-01-13T01:44:35.853Z,130.17
2018-01-13T01:47:04.250Z,131.83
2018-01-13T01:49:32.663Z,128.87
2018-01-13T01:52:01.810Z,130.87
2018-01-13T01:54:30.273Z,121.53
2018-01-13T01:56:58.717Z,122.57
2018-01-13T01:59:27.831Z,131.50
2018-01-13T02:01:56.947Z,134.40
2018-01-13T02:04:25.279Z,128.10
2018-01-13T02:06:53.705Z,126.53
2018-01-13T02:09:22.071Z,125.60
2018-01-13T02:11:50.399Z,130.10
2018-01-13T02:14:18.746Z,118.30
2018-01-13T02:16:47.169Z,124.10
2018-01-13T02:19:15.578Z,143.10
2018-01-13T02:21:43.932Z,128.00
2018-01-13T02:24:12.585Z,115.90
2018-01-13T02:26:41.013Z,129.83
2018-01-13T02:29:09.383Z,121.87
2018-01-13T02:31:38.537Z,121.33
2018-01-13T02:34:06.930Z,121.20
2018-01-13T02:36:35.265Z,130.93
2018-01-13T02:39:03.690Z,132.37
2018-01-13T02:41:32.098Z,136.77
2018-01-13T02:44:00.471Z,123.07
2018-01-13T02:46:29.604Z,116.87
2018-01-13T02:48:57.947Z,132.67
2018-01-13T02:51:27.051Z,131.90
2018-01-13T02:53:56.223Z,128.37
2018-01-13T02:56:24.628Z,131.73
2018-01-13T02:58:53.060Z,125.33
2018-01-13T03:01:21.527Z,138.80
2018-01-13T03:03:49.943Z,141.50
2018-01-13T03:06:19.047Z,131.80
2018-01-13T03:08:48.257Z,131.87
2018-01-13T03:11:17.421Z,135.80
2018-01-13T03:13:45.762Z,119.33
2018-01-13T03:16:14.193Z,129.33
2018-01-13T03:18:43.343Z,125.63
2018-01-13T03:21:11.749Z,121.67
2018-01-13T03:23:40.195Z,125.53
2018-01-13T03:26:08.596Z,118.53
2018-01-13T03:28:36.997Z,124.10
2018-01-13T03:31:05.426Z,131.10
2018-01-13T03:33:33.826Z,118.03
2018-01-13T03:36:02.262Z,115.13
2018-01-13T03:38:30.594Z,121.23
2018-01-13T03:40:58.993Z,140.80
2018-01-13T03:43:27.427Z,127.57
2018-01-13T03:45:55.826Z,150.77
2018-01-13T03:48:24.243Z,144.10
2018-01-13T03:50:53.404Z,126.73
2018-01-13T03:53:21.799Z,138.90
2018-01-13T03:55:50.136Z,137.97
2018-01-13T03:58:18.572Z,127.97
2018-01-13T04:00:47.690Z,123.87
2018-01-13T04:03:16.008Z,132.83
2018-01-13T04:05:44.557Z,129.50
2018-01-13T04:08:12.919Z,126.47
2018-01-13T04:10:42.063Z,130.40
2018-01-13T04:13:10.482Z,127.63
2018-01-13T04:15:39.607Z,114.57
2018-01-13T04:18:08.091Z,122.07
2018-01-13T04:20:36.427Z,129.67
2018-01-13T04:23:04.817Z,126.07
2018-01-13T04:25:34.110Z,121.70
2018-01-13T04:28:03.204Z,127.10
2018-01-13T04:30:31.593Z,125.40
2018-01-13T04:33:00.731Z,139.23
2018-01-13T04:35:29.085Z,152.07
2018-01-13T04:37:57.412Z,146.60
2018-01-13T04:40:25.827Z,136.10
2018-01-13T04:42:54.993Z,140.90
2018-01-13T04:45:23.398Z,155.40
2018-01-13T04:47:52.546Z,146.37
2018-01-13T04:50:20.951Z,141.57
2018-01-13T04:52:49.381Z,145.13
2018-01-13T04:55:17.727Z,148.80
2018-01-13T04:57:47.003Z,138.47
2018-01-13T05:00:15.401Z,154.30
2018-01-13T05:02:44.554Z,122.93
2018-01-13T05:05:12.997Z,140.57
2018-01-13T05:07:41.398Z,129.13
2018-01-13T05:10:09.789Z,128.53
2018-01-13T05:12:38.204Z,128.40
2018-01-13T05:15:06.609Z,132.23
2018-01-13T05:17:35.723Z,129.30
2018-01-13T05:20:04.074Z,132.07
2018-01-13T05:22:33.180Z,132.03
2018-01-13T05:25:02.415Z,134.13
2018-01-13T05:27:30.856Z,129.00
2018-01-13T05:29:59.953Z,124.80
2018-01-13T05:32:29.151Z,140.63
2018-01-13T05:34:57.487Z,131.00
2018-01-13T05:37:25.909Z,131.60
2018-01-13T05:39:54.884Z,119.37
2018-01-13T05:42:24.237Z,120.57
2018-01-13T05:44:52.730Z,124.57
2018-01-13T05:47:21.070Z,133.27
2018-01-13T05:49:49.431Z,131.80
2018-01-13T05:52:18.674Z,138.97
2018-01-13T05:54:47.075Z,150.90
2018-01-13T05:57:15.409Z,158.37
2018-01-13T05:59:43.952Z,118.03
2018-01-13T06:02:12.296Z,136.03
2018-01-13T06:04:40.627Z,134.97
2018-01-13T06:07:09.805Z,111.63
2018-01-13T06:09:38.139Z,131.57
2018-01-13T06:12:06.468Z,130.63
2018-01-13T06:14:35.605Z,136.27
2018-01-13T06:17:04.014Z,125.37
2018-01-13T06:19:32.413Z,138.47
2018-01-13T06:22:01.633Z,131.63
2018-01-13T06:24:29.966Z,125.30
2018-01-13T06:26:58.287Z,128.00
2018-01-13T06:29:27.476Z,138.13
2018-01-13T06:31:56.659Z,140.73
2018-01-13T06:34:26.033Z,125.17
2018-01-13T06:36:54.395Z,127.20
2018-01-13T06:39:22.794Z,147.93
2018-01-13T06:41:51.265Z,136.23
2018-01-13T06:44:19.717Z,140.43
2018-01-13T06:46:48.050Z,131.57
2018-01-13T06:49:16.434Z,146.07
2018-01-13T06:51:44.846Z,131.67
2018-01-13T06:54:13.282Z,120.53
2018-01-13T06:56:41.739Z,133.43
2018-01-13T06:59:10.104Z,133.23
2018-01-13T07:01:38.444Z,124.20
2018-01-13T07:04:07.835Z,135.10
2018-01-13T07:06:37.008Z,132.77
2018-01-13T07:09:05.386Z,125.53
2018-01-13T07:11:33.858Z,124.43
2018-01-13T07:14:02.216Z,124.27
2018-01-13T07:16:30.727Z,133.60
2018-01-13T07:18:59.122Z,126.80
2018-01-13T07:21:28.290Z,124.30
2018-01-13T07:23:56.745Z,121.77
2018-01-13T07:26:25.146Z,118.27
2018-01-13T07:28:53.575Z,119.00
2018-01-13T07:31:21.952Z,123.77
2018-01-13T07:33:51.115Z,127.67
2018-01-13T07:36:19.510Z,119.17
2018-01-13T07:38:48.723Z,114.87
2018-01-13T07:41:17.841Z,119.70
2018-01-13T07:43:46.176Z,142.40
2018-01-13T07:46:16.179Z,122.60
2018-01-13T07:48:44.580Z,133.03
2018-01-13T07:51:13.740Z,119.87
2018-01-13T07:53:42.170Z,129.77
2018-01-13T07:56:11.281Z,117.90
2018-01-13T07:58:39.804Z,117.60
2018-01-13T08:01:08.254Z,120.00
2018-01-13T08:03:36.662Z,111.67
2018-01-13T08:06:05.065Z,120.30
2018-01-13T08:08:34.317Z,130.40
2018-01-13T08:11:03.592Z,123.07
2018-01-13T08:13:32.174Z,126.77
2018-01-13T08:16:00.755Z,118.53
2018-01-13T08:18:29.123Z,130.13
2018-01-13T08:20:58.392Z,125.50
2018-01-13T08:23:28.338Z,126.77
2018-01-13T08:25:57.463Z,128.57
2018-01-13T08:28:25.874Z,115.17
2018-01-13T08:30:54.329Z,117.50
2018-01-13T08:33:22.718Z,118.63
2018-01-13T08:35:51.190Z,113.23
2018-01-13T08:38:19.645Z,129.47
2018-01-13T08:40:48.042Z,118.03
2018-01-13T08:43:16.464Z,131.10
2018-01-13T08:45:44.850Z,127.17
2018-01-13T08:48:13.303Z,143.80
2018-01-13T08:50:41.706Z,129.87
2018-01-13T08:53:10.192Z,143.83
2018-01-13T08:55:38.618Z,133.30
2018-01-13T08:58:06.973Z,143.90
2018-01-13T09:00:35.534Z,133.03
2018-01-13T09:03:04.712Z,133.00
2018-01-13T09:05:33.321Z,126.40
2018-01-13T09:08:02.459Z,124.43
2018-01-13T09:10:30.782Z,144.10
2018-01-13T09:12:59.173Z,125.40
2018-01-13T09:15:28.344Z,137.13
2018-01-13T09:17:56.831Z,130.03
2018-01-13T09:20:25.518Z,131.13
2018-01-13T09:22:53.922Z,147.37
2018-01-13T09:25:23.084Z,121.93
2018-01-13T09:27:51.890Z,138.17
2018-01-13T09:30:20.313Z,133.30
2018-01-13T09:32:48.810Z,143.27
2018-01-13T09:35:17.238Z,134.50
2018-01-13T09:37:46.442Z,124.20
2018-01-13T09:40:14.872Z,132.83
2018-01-13T09:42:43.305Z,123.87
2018-01-13T09:45:11.724Z,132.67
2018-01-13T09:47:40.276Z,117.33
2018-01-13T09:50:09.621Z,119.43
2018-01-13T09:52:38.118Z,125.37
2018-01-13T09:55:06.834Z,116.30
2018-01-13T09:57:35.204Z,112.77
2018-01-13T10:00:03.595Z,112.30
2018-01-13T10:02:32.119Z,111.47
2018-01-13T10:05:01.068Z,118.33
2018-01-13T10:07:29.606Z,119.80
2018-01-13T10:09:58.031Z,106.60
2018-01-13T10:12:27.183Z,110.10
2018-01-13T10:14:55.614Z,97.73
2018-01-13T10:17:23.984Z,100.67
2018-01-13T10:19:53.277Z,105.87
2018-01-13T10:22:22.389Z,104.93
2018-01-13T10:24:51.583Z,104.07
2018-01-13T10:27:19.964Z,101.30
2018-01-13T10:29:49.135Z,102.20
2018-01-13T10:32:18.243Z,106.10
2018-01-13T10:34:47.370Z,105.43
2018-01-13T10:37:15.702Z,98.90
2018-01-13T10:39:44.340Z,108.00
2018-01-13T10:42:12.712Z,88.10
2018-01-13T10:44:41.140Z,92.77
2018-01-13T10:47:09.598Z,97.00
2018-01-13T10:49:38.023Z,85.80
2018-01-13T10:52:07.183Z,82.00
2018-01-13T10:54:37.443Z,75.07
2018-01-13T10:57:06.597Z,75.63
2018-01-13T10:59:34.939Z,75.17
2018-01-13T11:02:03.275Z,75.17
2018-01-13T11:04:31.660Z,70.30
2018-01-13T11:06:59.995Z,68.13
2018-01-13T11:09:28.445Z,70.57
2018-01-13T11:11:56.947Z,59.03
2018-01-13T11:14:26.184Z,50.87
2018-01-13T11:16:55.385Z,44.97
2018-01-13T11:19:23.729Z,40.00
2018-01-13T11:21:52.135Z,34.20
2018-01-13T11:24:20.586Z,36.17
2018-01-13T11:26:48.957Z,29.47
2018-01-13T11:29:17.348Z,32.60
2018-01-13T11:31:45.768Z,29.30
2018-01-13T11:34:14.867Z,30.63
2018-01-13T11:36:44.001Z,31.33
2018-01-13T11:39:12.416Z,29.80
2018-01-13T11:41:40.817Z,30.17
2018-01-13T11:44:09.954Z,28.80
2018-01-13T11:46:38.322Z,26.90
2018-01-13T11:49:06.734Z,31.27
2018-01-13T11:51:35.072Z,28.23
2018-01-13T11:54:04.259Z,28.90
2018-01-13T11:56:33.361Z,23.03
2018-01-13T11:59:01.723Z,23.60
2018-01-13T12:01:30.055Z,25.60
2018-01-13T12:03:58.442Z,24.57
2018-01-13T12:06:26.803Z,24.03
2018-01-13T12:08:55.194Z,21.97
2018-01-13T12:11:24.323Z,23.97
2018-01-13T12:13:52.741Z,23.03
2018-01-13T12:16:21.076Z,21.10
2018-01-13T12:18:49.393Z,23.40
2018-01-13T12:21:17.732Z,21.20
2018-01-13T12:23:46.058Z,22.70
2018-01-13T12:26:14.443Z,23.40
2018-01-13T12:28:42.811Z,22.53
2018-01-13T12:31:11.224Z,25.20
2018-01-13T12:33:41.067Z,27.67
2018-01-13T12:36:10.171Z,23.13
2018-01-13T12:38:39.375Z,23.87
2018-01-13T12:41:08.590Z,23.53
2018-01-13T12:43:36.975Z,25.67
2018-01-13T12:46:05.311Z,23.20
2018-01-13T12:48:33.703Z,22.80
2018-01-13T12:51:02.069Z,30.53
2018-01-13T12:53:30.429Z,25.00
2018-01-13T12:55:58.851Z,26.37
2018-01-13T12:58:27.223Z,25.47
2018-01-13T13:00:56.383Z,28.73
2018-01-13T13:03:24.745Z,26.17
2018-01-13T13:05:53.237Z,24.93
2018-01-13T13:08:21.571Z,30.57
2018-01-13T13:10:49.887Z,24.93
2018-01-13T13:13:18.270Z,24.93
2018-01-13T13:15:46.601Z,24.45
2018-01-13T13:18:14.957Z,26.17
2018-01-13T13:20:44.138Z,23.73
2018-01-13T13:23:13.307Z,27.80
2018-01-13T13:25:41.727Z,25.10
2018-01-13T13:28:10.923Z,24.43
2018-01-13T13:30:40.108Z,23.73
2018-01-13T13:33:08.445Z,25.17
2018-01-13T13:35:36.862Z,21.00
2018-01-13T13:38:05.268Z,30.37
2018-01-13T13:40:33.607Z,23.20
2018-01-13T13:43:02.066Z,22.60
2018-01-13T13:45:30.482Z,29.33
2018-01-13T13:47:59.621Z,27.00
2018-01-13T13:50:27.979Z,21.87
2018-01-13T13:52:57.185Z,22.53
2018-01-13T13:55:25.576Z,24.23
2018-01-13T13:57:54.079Z,21.77
2018-01-13T14:00:22.418Z,24.33
2018-01-13T14:02:50.764Z,20.17
2018-01-13T14:05:19.198Z,20.33
2018-01-13T14:07:47.528Z,21.23
2018-01-13T14:10:16.646Z,22.00
2018-01-13T14:12:45.834Z,20.70
2018-01-13T14:15:15.097Z,24.53
2018-01-13T14:17:43.424Z,20.03
2018-01-13T14:20:12.298Z,20.10
2018-01-13T14:22:40.706Z,23.33
2018-01-13T14:25:09.048Z,22.60
2018-01-13T14:27:38.228Z,27.47
2018-01-13T14:30:06.647Z,45.53
2018-01-13T14:32:35.065Z,24.60
2018-01-13T14:35:03.439Z,19.03
2018-01-13T14:37:31.861Z,20.30
2018-01-13T14:40:01.050Z,18.17
2018-01-13T14:42:30.221Z,19.40
2018-01-13T14:44:58.601Z,20.10
2018-01-13T14:47:26.990Z,22.27
2018-01-13T14:49:55.333Z,22.07
2018-01-13T14:52:23.752Z,18.53
2018-01-13T14:54:52.160Z,22.17
2018-01-13T14:57:20.516Z,21.87
2018-01-13T14:59:48.922Z,23.30
2018-01-13T15:02:17.252Z,19.60
2018-01-13T15:04:45.860Z,24.23
2018-01-13T15:07:14.309Z,21.33
2018-01-13T15:09:42.716Z,22.90
2018-01-13T15:12:11.894Z,20.93
2018-01-13T15:14:40.286Z,17.07
2018-01-13T15:17:08.834Z,20.30
2018-01-13T15:19:37.206Z,18.73
2018-01-13T15:22:05.544Z,23.13
2018-01-13T15:24:34.643Z,20.33
2018-01-13T15:27:03.752Z,21.60
2018-01-13T15:29:32.103Z,21.83
2018-01-13T15:32:01.298Z,23.67
2018-01-13T15:34:29.647Z,21.67
2018-01-13T15:36:58.053Z,25.43
2018-01-13T15:39:27.272Z,23.97
2018-01-13T15:41:55.600Z,21.10
2018-01-13T15:44:24.007Z,25.43
2018-01-13T15:46:53.120Z,24.63
2018-01-13T15:49:22.276Z,20.83
2018-01-13T15:51:50.622Z,24.70
2018-01-13T15:54:19.127Z,30.70
2018-01-13T15:56:47.546Z,27.13
2018-01-13T15:59:16.771Z,29.13
2018-01-13T16:01:45.204Z,26.50
2018-01-13T16:04:14.348Z,23.27
2018-01-13T16:06:42.740Z,27.30
2018-01-13T16:09:11.173Z,26.60
2018-01-13T16:11:40.286Z,21.47
2018-01-13T16:14:09.420Z,24.40
2018-01-13T16:16:37.894Z,21.67
2018-01-13T16:19:06.309Z,24.53
2018-01-13T16:21:34.713Z,26.27
2018-01-13T16:24:03.147Z,26.47
2018-01-13T16:26:31.544Z,28.20
2018-01-13T16:28:59.880Z,25.13
2018-01-13T16:31:28.237Z,28.13
2018-01-13T16:33:57.395Z,27.00
2018-01-13T16:36:25.814Z,24.90
2018-01-13T16:38:54.269Z,23.93
2018-01-13T16:41:23.371Z,27.33
2018-01-13T16:43:51.743Z,25.27
2018-01-13T16:46:20.100Z,26.70
2018-01-13T16:48:48.548Z,24.50
2018-01-13T16:51:16.996Z,28.43
2018-01-13T16:53:46.187Z,28.77
2018-01-13T16:56:15.302Z,34.67
2018-01-13T16:58:43.930Z,28.83
2018-01-13T17:01:12.275Z,23.50
2018-01-13T17:03:40.779Z,28.03
2018-01-13T17:06:09.182Z,24.70
2018-01-13T17:08:37.579Z,25.43
2018-01-13T17:11:06.705Z,25.97
2018-01-13T17:13:35.125Z,32.60
2018-01-13T17:16:03.526Z,30.63
2018-01-13T17:18:31.872Z,27.00
2018-01-13T17:21:00.313Z,35.17
2018-01-13T17:23:28.651Z,25.60
2018-01-13T17:25:56.983Z,27.73
2018-01-13T17:28:25.371Z,25.67
2018-01-13T17:30:53.772Z,31.27
2018-01-13T17:33:22.120Z,21.57
2018-01-13T17:35:50.629Z,22.13
2018-01-13T17:38:18.963Z,25.77
2018-01-13T17:40:47.288Z,29.53
2018-01-13T17:43:15.640Z,23.37
2018-01-13T17:45:44.047Z,22.83
2018-01-13T17:48:12.371Z,22.80
2018-01-13T17:50:41.595Z,27.73
2018-01-13T17:53:10.026Z,30.17
2018-01-13T17:55:38.494Z,22.53
2018-01-13T17:58:07.065Z,26.50
2018-01-13T18:00:35.475Z,27.90
2018-01-13T18:03:04.613Z,28.03
2018-01-13T18:05:33.009Z,24.50
2018-01-13T18:08:02.197Z,25.77
2018-01-13T18:10:30.555Z,22.70
2018-01-13T18:12:58.956Z,29.53
2018-01-13T18:15:27.348Z,25.87
2018-01-13T18:17:56.127Z,26.80
2018-01-13T18:20:24.461Z,25.87
2018-01-13T18:22:53.552Z,26.10
2018-01-13T18:25:22.742Z,31.23
2018-01-13T18:27:51.935Z,28.33
2018-01-13T18:30:21.075Z,26.40
2018-01-13T18:32:49.453Z,26.57
2018-01-13T18:35:17.839Z,27.83
2018-01-13T18:37:46.402Z,27.30
2018-01-13T18:40:14.777Z,24.00
2018-01-13T18:42:43.180Z,27.20
2018-01-13T18:45:11.579Z,34.77
2018-01-13T18:47:40.123Z,28.90
2018-01-13T18:50:08.451Z,24.53
2018-01-13T18:52:36.879Z,22.27
2018-01-13T18:55:05.385Z,31.13
2018-01-13T18:57:33.784Z,27.60
2018-01-13T19:00:02.117Z,32.80
2018-01-13T19:02:30.473Z,28.60
2018-01-13T19:04:59.580Z,30.30
2018-01-13T19:07:28.347Z,24.83
2018-01-13T19:09:57.459Z,22.80
2018-01-13T19:12:26.543Z,22.37
2018-01-13T19:14:57.243Z,18.13
2018-01-13T19:17:25.950Z,19.07
2018-01-13T19:19:54.324Z,21.53
2018-01-13T19:22:22.756Z,20.53
2018-01-13T19:24:51.164Z,21.57
2018-01-13T19:27:19.491Z,18.77
2018-01-13T19:29:48.705Z,18.80
2018-01-13T19:32:17.060Z,21.80
2018-01-13T19:34:46.180Z,16.50
2018-01-13T19:37:14.662Z,20.90
2018-01-13T19:39:43.061Z,21.73
2018-01-13T19:42:12.231Z,23.07
2018-01-13T19:44:40.586Z,21.47
2018-01-13T19:47:09.736Z,20.90
2018-01-13T19:49:38.922Z,22.37
2018-01-13T19:52:07.514Z,18.20
2018-01-13T19:54:35.861Z,22.60
2018-01-13T19:57:04.196Z,20.00
2018-01-13T19:59:32.934Z,23.47
2018-01-13T20:02:01.347Z,20.40
2018-01-13T20:04:29.785Z,20.13
2018-01-13T20:06:58.211Z,22.70
2018-01-13T20:09:26.576Z,19.90
2018-01-13T20:11:54.923Z,20.80
2018-01-13T20:14:23.322Z,19.10
2018-01-13T20:16:51.663Z,19.47
2018-01-13T20:19:20.017Z,21.87
2018-01-13T20:21:49.188Z,20.37
2018-01-13T20:24:17.520Z,17.87
2018-01-13T20:26:45.903Z,19.47
2018-01-13T20:29:14.318Z,18.33
2018-01-13T20:31:42.774Z,18.20
2018-01-13T20:34:11.316Z,16.33
2018-01-13T20:36:40.405Z,18.53
2018-01-13T20:39:09.569Z,15.90
2018-01-13T20:41:37.927Z,18.13
2018-01-13T20:44:06.250Z,19.80
2018-01-13T20:46:34.668Z,17.63
2018-01-13T20:49:03.079Z,18.20
2018-01-13T20:51:31.548Z,20.27
2018-01-13T20:53:59.990Z,16.97
2018-01-13T20:56:28.316Z,20.70
2018-01-13T20:58:56.717Z,14.57
2018-01-13T21:01:25.087Z,17.80
2018-01-13T21:03:53.499Z,16.37
2018-01-13T21:06:22.616Z,20.17
2018-01-13T21:08:51.012Z,16.40
2018-01-13T21:11:19.545Z,20.60
2018-01-13T21:13:47.875Z,17.70
2018-01-13T21:16:16.197Z,17.73
2018-01-13T21:18:44.622Z,17.33
2018-01-13T21:21:12.975Z,17.90
2018-01-13T21:23:41.374Z,18.00
2018-01-13T21:26:09.798Z,20.20
2018-01-13T21:28:38.239Z,17.33
2018-01-13T21:31:06.561Z,20.07
2018-01-13T21:33:35.004Z,18.97
2018-01-13T21:36:03.356Z,18.30
2018-01-13T21:38:31.746Z,20.80
2018-01-13T21:41:00.255Z,26.27
2018-01-13T21:43:28.591Z,18.73
2018-01-13T21:45:57.003Z,17.67
2018-01-13T21:48:25.427Z,22.23
2018-01-13T21:50:54.539Z,19.60
2018-01-13T21:53:23.762Z,17.67
2018-01-13T21:55:52.273Z,18.83
2018-01-13T21:58:20.689Z,20.97
2018-01-13T22:00:49.102Z,20.00
2018-01-13T22:03:17.463Z,20.43
2018-01-13T22:05:45.787Z,18.60
2018-01-13T22:08:14.200Z,23.50
2018-01-13T22:10:42.569Z,21.60
2018-01-13T22:13:11.142Z,19.43
2018-01-13T22:15:40.315Z,20.17
2018-01-13T22:18:08.656Z,25.20
2018-01-13T22:20:37.051Z,23.40
2018-01-13T22:23:05.498Z,20.80
2018-01-13T22:25:33.881Z,21.20
2018-01-13T22:28:03.074Z,22.33
2018-01-13T22:30:31.399Z,23.87
2018-01-13T22:32:59.866Z,22.03
2018-01-13T22:35:28.253Z,20.33
2018-01-13T22:37:56.709Z,21.17
2018-01-13T22:40:25.113Z,16.40
2018-01-13T22:42:53.452Z,19.40
2018-01-13T22:45:21.889Z,19.90
2018-01-13T22:47:50.259Z,24.83
2018-01-13T22:50:18.658Z,25.27
2018-01-13T22:52:47.106Z,20.30
2018-01-13T22:55:15.499Z,23.00
2018-01-13T22:57:43.892Z,21.93
2018-01-13T23:00:12.228Z,22.40
2018-01-13T23:02:40.586Z,22.10
2018-01-13T23:05:09.107Z,21.60
2018-01-13T23:07:37.442Z,20.40
2018-01-13T23:10:05.772Z,22.27
2018-01-13T23:12:34.218Z,23.00
2018-01-13T23:15:02.718Z,23.00
2018-01-13T23:17:31.127Z,17.53
2018-01-13T23:19:59.559Z,21.37
2018-01-13T23:22:27.967Z,20.53
2018-01-13T23:24:56.393Z,22.13
2018-01-13T23:27:25.577Z,23.43
2018-01-13T23:29:54.006Z,26.87
2018-01-13T23:32:22.346Z,24.27
2018-01-13T23:34:51.615Z,25.57
2018-01-13T23:37:20.064Z,37.93
2018-01-13T23:39:48.392Z,28.70
2018-01-13T23:42:17.555Z,29.90
2018-01-13T23:44:45.973Z,24.17
2018-01-13T23:47:15.146Z,26.97
2018-01-13T23:49:44.362Z,28.90
2018-01-13T23:52:13.548Z,26.73
2018-01-13T23:54:42.717Z,28.53
2018-01-13T23:57:11.047Z,27.53
2018-01-13T23:59:40.159Z,28.80
